Time;durP1;ratioP1;P1;durP2;ratioP2;P2;SDS_P1;SDS_P2;PMS_P1;PMS_P2;Temp;Humidity;BMP_temperature;BMP_pressure;BME280_temperature;BME280_humidity;BME280_pressure;Samples;Min_cycle;Max_cycle;Signal;HPM_P1;HPM_P2
2022/08/05 00:01:14;;;;;;;9.88;5.72;;;19.50;99.90;;;;;;5092988;28;20075;-64
2022/08/05 00:03:41;;;;;;;9.23;5.20;;;19.40;99.90;;;;;;5073117;28;20044;-65
2022/08/05 00:06:08;;;;;;;12.43;6.40;;;19.40;99.90;;;;;;5080353;28;20056;-65
2022/08/05 00:08:34;;;;;;;10.57;6.13;;;19.40;99.90;;;;;;5091996;28;20051;-64
2022/08/05 00:11:02;;;;;;;8.90;5.68;;;19.30;99.90;;;;;;5084614;28;20044;-65
2022/08/05 00:13:31;;;;;;;11.50;5.82;;;19.30;99.90;;;;;;5075793;28;20063;-65
2022/08/05 00:15:56;;;;;;;13.60;6.55;;;19.20;99.90;;;;;;5065965;28;20044;-65
2022/08/05 00:18:22;;;;;;;10.30;5.35;;;19.30;99.90;;;;;;5071199;28;20075;-65
2022/08/05 00:20:49;;;;;;;8.32;5.45;;;19.30;99.90;;;;;;5096423;28;20191;-65
2022/08/05 00:23:15;;;;;;;12.65;5.97;;;19.30;99.90;;;;;;5100768;28;20083;-65
2022/08/05 00:25:40;;;;;;;13.00;5.97;;;19.30;99.90;;;;;;5101427;28;20059;-65
2022/08/05 00:28:06;;;;;;;12.55;6.05;;;19.30;99.90;;;;;;5083890;28;20601;-64
2022/08/05 00:30:32;;;;;;;9.48;6.47;;;19.30;99.90;;;;;;5104430;28;20048;-65
2022/08/05 00:32:57;;;;;;;13.43;6.45;;;19.30;99.90;;;;;;5098691;28;20062;-65
2022/08/05 00:35:23;;;;;;;9.60;5.47;;;19.30;99.90;;;;;;5100152;28;20048;-65
2022/08/05 00:37:49;;;;;;;9.95;5.78;;;19.30;99.90;;;;;;5085300;28;20048;-65
2022/08/05 00:40:14;;;;;;;9.73;6.10;;;19.20;99.90;;;;;;5086188;28;20044;-64
2022/08/05 00:42:40;;;;;;;11.63;5.60;;;19.20;99.90;;;;;;5077607;28;20052;-64
2022/08/05 00:45:07;;;;;;;13.80;6.32;;;19.10;99.90;;;;;;5085753;28;20074;-64
2022/08/05 00:47:33;;;;;;;11.30;6.18;;;19.10;99.90;;;;;;5100551;28;20044;-65
2022/08/05 00:49:59;;;;;;;10.18;6.35;;;19.10;99.90;;;;;;5078291;28;20082;-64
2022/08/05 00:52:24;;;;;;;10.93;5.60;;;19.10;99.90;;;;;;5080456;28;20268;-65
2022/08/05 00:54:50;;;;;;;14.13;7.45;;;19.00;99.90;;;;;;5081768;28;20439;-65
2022/08/05 00:57:16;;;;;;;15.68;6.95;;;19.00;99.90;;;;;;5100508;28;20055;-64
2022/08/05 00:59:42;;;;;;;9.82;5.30;;;19.10;99.90;;;;;;5074011;28;20488;-65
2022/08/05 01:02:07;;;;;;;10.13;6.20;;;19.10;99.90;;;;;;5102065;28;20045;-64
2022/08/05 01:04:33;;;;;;;11.90;6.13;;;19.10;99.90;;;;;;5101497;28;20036;-65
2022/08/05 01:06:59;;;;;;;15.30;7.00;;;19.20;99.90;;;;;;5068740;28;20076;-64
2022/08/05 01:09:24;;;;;;;12.38;5.88;;;19.20;99.90;;;;;;5075990;28;20041;-65
2022/08/05 01:11:53;;;;;;;10.85;5.78;;;19.20;99.90;;;;;;5073812;28;20091;-64
2022/08/05 01:14:26;;;;;;;21.30;6.18;;;19.20;99.90;;;;;;5082442;28;20044;-65
2022/08/05 01:17:15;;;;;;;10.32;5.40;;;19.20;99.90;;;;;;5101320;28;20114;-65
2022/08/05 01:19:47;;;;;;;10.73;6.15;;;19.20;99.90;;;;;;5097932;28;20040;-64
2022/08/05 01:22:50;;;;;;;9.02;6.50;;;19.10;99.90;;;;;;5080848;28;20086;-65
2022/08/05 01:26:04;;;;;;;9.60;5.78;;;19.20;99.90;;;;;;5081683;28;20052;-65
2022/08/05 01:28:42;;;;;;;10.90;5.32;;;19.10;99.90;;;;;;4999369;28;20463;-65
2022/08/05 01:31:50;;;;;;;9.30;6.57;;;19.00;99.90;;;;;;4995458;28;20542;-65
2022/08/05 01:34:57;;;;;;;10.50;6.30;;;19.00;99.90;;;;;;5001645;28;20562;-65
2022/08/05 01:37:38;;;;;;;8.32;5.03;;;19.00;99.90;;;;;;4946085;29;20054;-64
2022/08/05 01:40:05;;;;;;;14.82;6.70;;;19.00;99.90;;;;;;4963189;28;20146;-64
2022/08/05 01:42:32;;;;;;;9.18;6.07;;;18.90;99.90;;;;;;4963802;28;20123;-65
2022/08/05 01:45:00;;;;;;;11.85;5.93;;;18.90;99.90;;;;;;4950489;29;20055;-64
2022/08/05 01:47:29;;;;;;;12.35;6.22;;;18.80;99.90;;;;;;4966246;28;20096;-64
2022/08/05 01:49:56;;;;;;;7.90;5.57;;;18.80;99.90;;;;;;4949922;28;20123;-64
2022/08/05 01:52:22;;;;;;;11.13;5.30;;;18.70;99.90;;;;;;4949678;29;20152;-65
2022/08/05 01:54:52;;;;;;;10.73;5.68;;;18.70;99.90;;;;;;4950147;29;20051;-65
2022/08/05 01:57:27;;;;;;;8.23;5.20;;;18.70;99.90;;;;;;4965558;28;20111;-65
2022/08/05 01:59:58;;;;;;;12.27;5.65;;;18.70;99.90;;;;;;4949842;28;20058;-64
2022/08/05 02:02:25;;;;;;;8.70;5.50;;;18.60;99.90;;;;;;4965913;28;20435;-64
2022/08/05 02:04:53;;;;;;;9.88;5.78;;;18.60;99.90;;;;;;4981280;28;20057;-65
2022/08/05 02:07:19;;;;;;;8.80;5.85;;;18.60;99.90;;;;;;5028560;28;20053;-64
2022/08/05 02:09:45;;;;;;;9.00;4.78;;;18.60;99.90;;;;;;5099716;28;20185;-64
2022/08/05 02:12:43;;;;;;;11.23;5.82;;;18.60;99.90;;;;;;5086808;28;20044;-65
2022/08/05 02:15:15;;;;;;;10.82;5.38;;;18.60;99.90;;;;;;5085660;28;20051;-64
2022/08/05 02:17:48;;;;;;;10.18;5.20;;;18.60;99.90;;;;;;5084396;28;20052;-65
2022/08/05 02:20:20;;;;;;;12.18;5.35;;;18.60;99.90;;;;;;5098789;28;20041;-64
2022/08/05 02:22:50;;;;;;;10.27;5.50;;;18.50;99.90;;;;;;5106194;28;20466;-64
2022/08/05 02:25:24;;;;;;;6.90;5.07;;;18.50;99.90;;;;;;5102668;28;20059;-65
2022/08/05 02:27:50;;;;;;;8.13;5.57;;;18.50;99.90;;;;;;5104982;28;20051;-64
2022/08/05 02:30:17;;;;;;;8.27;4.97;;;18.50;99.90;;;;;;5100894;28;20054;-65
2022/08/05 02:32:48;;;;;;;7.93;4.60;;;18.50;99.90;;;;;;5105111;28;20048;-64
2022/08/05 02:35:19;;;;;;;6.47;4.40;;;18.60;99.90;;;;;;5098867;28;20086;-64
2022/08/05 02:37:46;;;;;;;10.48;4.45;;;18.60;99.90;;;;;;5103824;28;20040;-64
2022/08/05 02:40:15;;;;;;;7.85;4.40;;;18.60;99.90;;;;;;5083769;28;20107;-64
2022/08/05 02:42:41;;;;;;;8.60;4.60;;;18.60;99.90;;;;;;5084378;28;20048;-64
2022/08/05 02:45:08;;;;;;;8.18;4.72;;;18.50;99.90;;;;;;5084161;28;20127;-64
2022/08/05 02:47:35;;;;;;;7.15;4.32;;;18.50;99.90;;;;;;5084512;28;20048;-65
2022/08/05 02:50:02;;;;;;;6.35;4.32;;;18.50;99.90;;;;;;5086664;28;20129;-64
2022/08/05 02:52:28;;;;;;;10.85;5.20;;;18.50;99.90;;;;;;5098659;28;20051;-65
2022/08/05 02:54:55;;;;;;;9.55;4.60;;;18.50;99.90;;;;;;5081746;28;20040;-64
2022/08/05 02:57:23;;;;;;;9.45;4.53;;;18.50;99.90;;;;;;5082336;28;20112;-65
2022/08/05 02:59:50;;;;;;;9.82;4.88;;;18.50;99.90;;;;;;5082015;28;20044;-65
2022/08/05 03:02:19;;;;;;;8.70;4.63;;;18.50;99.90;;;;;;5079675;28;20055;-65
2022/08/05 03:04:45;;;;;;;7.03;4.60;;;18.50;99.90;;;;;;5095796;28;20044;-64
2022/08/05 03:07:12;;;;;;;9.32;4.72;;;18.50;99.90;;;;;;5103821;28;20052;-64
2022/08/05 03:09:41;;;;;;;8.63;4.43;;;18.50;99.90;;;;;;5083872;28;20485;-64
2022/08/05 03:12:07;;;;;;;8.13;5.10;;;18.50;99.90;;;;;;5102561;28;20039;-64
2022/08/05 03:14:33;;;;;;;7.40;4.82;;;18.60;99.90;;;;;;5105987;28;20040;-64
2022/08/05 03:16:59;;;;;;;5.90;4.53;;;18.50;99.90;;;;;;5105764;28;20040;-65
2022/08/05 03:19:25;;;;;;;7.85;5.10;;;18.60;99.90;;;;;;5093464;28;20079;-64
2022/08/05 03:21:51;;;;;;;10.70;4.80;;;18.50;99.90;;;;;;5100574;28;20054;-64
2022/08/05 03:24:18;;;;;;;7.75;5.00;;;18.50;99.90;;;;;;5075640;28;20055;-65
2022/08/05 03:26:45;;;;;;;9.45;4.85;;;18.50;99.90;;;;;;5085513;28;20064;-65
2022/08/05 03:29:11;;;;;;;7.85;5.07;;;18.50;99.90;;;;;;5101063;28;20044;-65
2022/08/05 03:31:37;;;;;;;7.97;4.55;;;18.50;99.90;;;;;;5099539;28;20069;-64
2022/08/05 03:34:03;;;;;;;9.63;4.50;;;18.50;99.90;;;;;;5081319;28;20205;-64
2022/08/05 03:36:30;;;;;;;10.40;5.10;;;18.50;99.90;;;;;;5080793;28;20080;-64
2022/08/05 03:38:56;;;;;;;10.07;4.78;;;18.50;99.90;;;;;;5071830;28;20083;-64
2022/08/05 03:41:22;;;;;;;9.98;5.50;;;18.40;99.90;;;;;;5092021;28;20028;-64
2022/08/05 03:43:48;;;;;;;9.88;4.40;;;18.50;99.90;;;;;;5083209;28;20512;-64
2022/08/05 03:46:13;;;;;;;5.72;4.32;;;18.40;99.90;;;;;;5090127;28;20048;-64
2022/08/05 03:48:39;;;;;;;11.35;4.45;;;18.40;99.90;;;;;;5083128;28;20074;-64
2022/08/05 03:51:16;;;;;;;9.27;4.63;;;18.40;99.90;;;;;;5101420;28;20371;-64
2022/08/05 03:53:55;;;;;;;7.53;3.83;;;18.30;99.90;;;;;;5087724;28;20079;-64
2022/08/05 03:56:28;;;;;;;9.82;4.95;;;18.30;99.90;;;;;;5086866;28;20075;-64
2022/08/05 03:58:59;;;;;;;14.02;4.07;;;18.20;99.90;;;;;;5104972;28;20036;-64
2022/08/05 04:01:27;;;;;;;8.50;4.00;;;18.20;99.90;;;;;;5083463;28;20481;-64
2022/08/05 04:03:54;;;;;;;9.52;3.95;;;18.20;99.90;;;;;;5085693;28;20048;-64
2022/08/05 04:06:20;;;;;;;7.13;4.40;;;18.20;99.90;;;;;;5082740;28;20074;-65
2022/08/05 04:08:48;;;;;;;8.80;4.18;;;18.20;99.90;;;;;;5080069;28;20044;-64
2022/08/05 04:11:14;;;;;;;6.30;4.20;;;18.10;99.90;;;;;;5078114;28;20087;-64
2022/08/05 04:13:41;;;;;;;5.53;3.45;;;18.10;99.90;;;;;;5104533;28;20449;-64
2022/08/05 04:16:12;;;;;;;6.13;3.90;;;18.10;99.90;;;;;;5085687;28;20043;-64
2022/08/05 04:18:38;;;;;;;6.80;3.70;;;18.20;99.90;;;;;;5081456;28;20050;-64
2022/08/05 04:21:04;;;;;;;6.47;4.18;;;18.10;99.90;;;;;;5067987;28;20074;-64
2022/08/05 04:23:31;;;;;;;9.27;4.18;;;18.00;99.90;;;;;;5084053;28;20399;-64
2022/08/05 04:25:57;;;;;;;7.88;3.95;;;18.00;99.90;;;;;;5085261;28;20087;-64
2022/08/05 04:28:23;;;;;;;6.93;3.90;;;18.00;99.90;;;;;;5080078;28;20041;-64
2022/08/05 04:30:48;;;;;;;6.53;3.63;;;18.00;99.90;;;;;;5081041;28;20055;-64
2022/08/05 04:33:15;;;;;;;5.68;3.75;;;18.00;99.90;;;;;;5096422;28;20058;-64
2022/08/05 04:35:41;;;;;;;6.13;3.90;;;18.00;99.90;;;;;;5074739;28;20047;-64
2022/08/05 04:38:07;;;;;;;8.95;4.00;;;18.00;99.90;;;;;;5074418;28;20401;-64
2022/08/05 04:40:38;;;;;;;6.03;3.92;;;18.00;99.90;;;;;;5077453;28;20074;-64
2022/08/05 04:43:05;;;;;;;10.35;3.85;;;18.10;99.90;;;;;;5067748;28;20044;-64
2022/08/05 04:45:31;;;;;;;7.97;3.90;;;18.10;99.90;;;;;;5098411;28;20101;-64
2022/08/05 04:48:07;;;;;;;11.38;4.35;;;18.10;99.90;;;;;;5081120;28;20135;-64
2022/08/05 04:50:44;;;;;;;8.93;4.00;;;18.10;99.90;;;;;;5101518;28;20043;-64
2022/08/05 04:53:11;;;;;;;6.45;3.97;;;18.10;99.90;;;;;;5070838;28;20059;-65
2022/08/05 04:55:38;;;;;;;7.55;4.65;;;18.10;99.90;;;;;;5080193;28;20070;-64
2022/08/05 04:58:05;;;;;;;10.23;4.22;;;18.00;99.90;;;;;;5085891;28;20086;-64
2022/08/05 05:00:32;;;;;;;11.23;3.88;;;17.90;99.90;;;;;;5084144;28;20036;-64
2022/08/05 05:02:57;;;;;;;12.05;4.63;;;17.90;99.90;;;;;;5100612;28;20484;-64
2022/08/05 05:05:23;;;;;;;12.75;5.00;;;17.90;99.90;;;;;;5079208;28;20041;-64
2022/08/05 05:07:49;;;;;;;11.40;4.20;;;17.90;99.90;;;;;;5096302;28;20048;-64
2022/08/05 05:10:15;;;;;;;9.75;5.00;;;17.90;99.90;;;;;;5077664;28;20046;-64
2022/08/05 05:12:40;;;;;;;13.52;5.13;;;17.90;99.90;;;;;;5099910;28;20044;-64
2022/08/05 05:15:06;;;;;;;13.00;4.40;;;18.00;99.90;;;;;;5080251;28;20059;-64
2022/08/05 05:17:39;;;;;;;16.52;4.70;;;18.00;99.90;;;;;;5099066;28;20048;-64
2022/08/05 05:20:06;;;;;;;9.90;4.93;;;18.00;99.90;;;;;;5068316;28;20103;-64
2022/08/05 05:22:33;;;;;;;8.85;4.13;;;18.00;99.90;;;;;;5081138;28;20124;-64
2022/08/05 05:24:59;;;;;;;11.38;5.07;;;18.00;99.90;;;;;;5104669;28;20052;-64
2022/08/05 05:27:28;;;;;;;7.93;4.72;;;18.00;99.90;;;;;;5107180;28;20132;-64
2022/08/05 05:29:54;;;;;;;;;;;18.10;99.90;;;;;;5086361;28;20125;-64
2022/08/05 05:32:20;;;;;;;8.13;4.47;;;18.00;99.90;;;;;;5105679;28;20004;-64
2022/08/05 05:34:45;;;;;;;7.30;4.05;;;18.10;99.90;;;;;;5084156;28;20049;-65
2022/08/05 05:37:13;;;;;;;8.50;4.28;;;18.10;99.90;;;;;;5085091;28;20090;-64
2022/08/05 05:39:39;;;;;;;11.32;5.10;;;18.20;99.90;;;;;;5089625;28;20048;-64
2022/08/05 05:42:05;;;;;;;7.95;4.57;;;18.20;99.90;;;;;;5069066;28;20044;-64
2022/08/05 05:44:31;;;;;;;7.70;4.97;;;18.30;99.90;;;;;;5105448;28;20514;-64
2022/08/05 05:46:57;;;;;;;7.45;4.95;;;18.20;99.90;;;;;;5100486;28;20050;-64
2022/08/05 05:49:22;;;;;;;15.68;5.93;;;18.20;99.90;;;;;;5075458;28;20051;-64
2022/08/05 05:51:48;;;;;;;9.55;5.15;;;18.20;99.90;;;;;;5097812;28;20044;-64
2022/08/05 05:54:14;;;;;;;10.45;5.25;;;18.20;99.90;;;;;;5086003;28;20105;-65
2022/08/05 05:56:40;;;;;;;7.57;4.70;;;18.20;99.90;;;;;;5089763;28;20036;-64
2022/08/05 05:59:06;;;;;;;7.05;4.43;;;18.20;99.90;;;;;;5081658;28;20048;-64
2022/08/05 06:01:33;;;;;;;11.32;5.05;;;18.20;99.90;;;;;;5083488;28;20066;-64
2022/08/05 06:03:59;;;;;;;5.90;4.40;;;18.20;99.90;;;;;;5097970;28;20079;-64
2022/08/05 06:06:24;;;;;;;7.68;4.43;;;18.10;99.90;;;;;;5097601;28;20045;-64
2022/08/05 06:08:50;;;;;;;7.15;4.78;;;18.10;99.90;;;;;;5104886;28;20047;-64
2022/08/05 06:11:15;;;;;;;8.48;5.10;;;18.00;99.90;;;;;;5105222;28;20052;-64
2022/08/05 06:13:41;;;;;;;17.77;4.90;;;18.00;99.90;;;;;;5082128;28;20043;-65
2022/08/05 06:16:07;;;;;;;10.98;4.95;;;18.00;99.90;;;;;;5083142;28;20495;-64
2022/08/05 06:18:33;;;;;;;8.82;4.95;;;18.00;99.90;;;;;;5102624;28;20128;-64
2022/08/05 06:20:59;;;;;;;7.97;4.32;;;18.00;99.90;;;;;;5084247;28;20566;-64
2022/08/05 06:23:25;;;;;;;8.98;4.65;;;18.00;99.90;;;;;;5104103;28;20047;-64
2022/08/05 06:25:50;;;;;;;8.38;4.97;;;18.10;99.90;;;;;;5094354;28;20052;-64
2022/08/05 06:28:16;;;;;;;9.48;4.72;;;18.10;99.90;;;;;;5083227;28;20048;-64
2022/08/05 06:30:42;;;;;;;12.75;5.07;;;18.20;99.90;;;;;;5080096;28;20407;-64
2022/08/05 06:33:07;;;;;;;8.23;4.78;;;18.20;99.90;;;;;;5084404;28;20079;-64
2022/08/05 06:35:33;;;;;;;9.60;4.85;;;18.30;99.90;;;;;;5089908;28;20132;-64
2022/08/05 06:37:59;;;;;;;10.13;4.90;;;18.30;99.90;;;;;;5078221;28;20040;-64
2022/08/05 06:40:24;;;;;;;8.60;4.50;;;18.40;99.90;;;;;;5094336;28;20058;-64
2022/08/05 06:42:50;;;;;;;10.55;4.70;;;18.50;99.90;;;;;;5103763;28;20500;-64
2022/08/05 06:45:16;;;;;;;9.48;4.97;;;18.50;99.90;;;;;;5103924;28;20048;-64
2022/08/05 06:47:42;;;;;;;9.68;4.45;;;18.60;99.90;;;;;;5086473;28;20051;-65
2022/08/05 06:50:08;;;;;;;7.38;4.20;;;18.70;99.90;;;;;;5106577;28;20035;-64
2022/08/05 06:52:34;;;;;;;10.75;4.30;;;18.70;99.90;;;;;;5104622;28;20047;-64
2022/08/05 06:54:59;;;;;;;11.05;4.20;;;18.70;99.90;;;;;;5099627;28;20044;-64
2022/08/05 06:57:25;;;;;;;9.35;3.60;;;18.80;99.90;;;;;;5103984;28;20044;-64
2022/08/05 06:59:51;;;;;;;8.07;3.70;;;18.80;99.90;;;;;;5105594;28;20046;-64
2022/08/05 07:02:16;;;;;;;7.10;3.63;;;18.80;99.90;;;;;;5104537;28;20043;-64
2022/08/05 07:04:42;;;;;;;6.45;3.25;;;18.90;99.90;;;;;;5080555;28;20048;-64
2022/08/05 07:07:08;;;;;;;7.25;4.18;;;18.90;99.90;;;;;;5077412;28;20056;-64
2022/08/05 07:09:33;;;;;;;6.80;3.25;;;18.90;99.90;;;;;;5103914;28;20112;-64
2022/08/05 07:11:59;;;;;;;7.95;3.85;;;19.00;99.90;;;;;;5075764;28;20091;-64
2022/08/05 07:17:09;;;;;;;4.35;2.60;;;19.10;99.90;;;;;;5097018;28;20080;-64
2022/08/05 07:19:35;;;;;;;61.15;12.18;;;19.20;99.90;;;;;;5105763;28;20044;-64
2022/08/05 07:22:01;;;;;;;7.78;3.35;;;19.30;99.90;;;;;;5096471;28;20048;-64
2022/08/05 07:24:27;;;;;;;9.00;2.80;;;19.30;99.90;;;;;;5093382;28;20040;-65
2022/08/05 07:26:52;;;;;;;9.13;2.55;;;19.30;99.90;;;;;;5088553;28;20048;-65
2022/08/05 07:29:18;;;;;;;6.28;2.60;;;19.40;99.90;;;;;;5072794;28;20045;-64
2022/08/05 07:31:44;;;;;;;4.30;2.50;;;19.50;99.90;;;;;;5085630;28;20554;-64
2022/08/05 07:34:10;;;;;;;8.00;2.50;;;19.60;99.90;;;;;;5104636;28;20044;-64
2022/08/05 07:36:35;;;;;;;4.43;2.55;;;19.70;99.90;;;;;;5103861;28;20111;-64
2022/08/05 07:39:04;;;;;;;5.78;2.13;;;19.60;99.90;;;;;;5104909;28;20035;-65
2022/08/05 07:41:30;;;;;;;4.35;2.00;;;19.60;99.90;;;;;;5081659;28;20080;-64
2022/08/05 07:43:57;;;;;;;4.93;2.10;;;19.60;99.90;;;;;;5097913;28;20051;-64
2022/08/05 07:46:24;;;;;;;3.97;1.88;;;19.70;99.90;;;;;;5105025;28;20119;-64
2022/08/05 07:48:50;;;;;;;4.32;1.90;;;19.70;99.90;;;;;;5075923;28;20075;-64
2022/08/05 07:51:16;;;;;;;5.05;2.20;;;19.80;99.90;;;;;;5103890;28;20056;-64
2022/08/05 07:53:42;;;;;;;5.47;2.22;;;19.80;99.90;;;;;;5071255;28;20036;-64
2022/08/05 07:56:08;;;;;;;7.30;2.20;;;19.90;99.90;;;;;;5076748;28;20086;-64
2022/08/05 07:58:33;;;;;;;12.82;1.85;;;19.90;99.90;;;;;;5084777;28;20048;-64
2022/08/05 08:00:59;;;;;;;3.58;2.13;;;20.10;99.90;;;;;;5081519;28;20048;-65
2022/08/05 08:03:25;;;;;;;4.82;1.92;;;20.10;99.90;;;;;;5079677;28;20133;-64
2022/08/05 08:05:51;;;;;;;11.60;3.42;;;20.10;99.90;;;;;;5099532;28;20043;-64
2022/08/05 08:08:17;;;;;;;14.18;2.92;;;20.20;99.90;;;;;;5077439;28;20048;-64
2022/08/05 08:10:43;;;;;;;3.33;1.80;;;20.20;99.90;;;;;;5102867;28;20068;-65
2022/08/05 08:13:10;;;;;;;4.75;2.15;;;20.20;99.90;;;;;;5060326;28;20056;-64
2022/08/05 08:15:35;;;;;;;5.60;2.20;;;20.30;99.90;;;;;;5072379;28;20154;-64
2022/08/05 08:18:01;;;;;;;5.88;1.80;;;20.30;99.90;;;;;;5102121;28;20039;-64
2022/08/05 08:20:27;;;;;;;6.68;2.40;;;20.30;99.90;;;;;;5080506;28;20399;-64
2022/08/05 08:22:55;;;;;;;5.88;2.25;;;20.30;99.90;;;;;;5079210;28;20048;-64
2022/08/05 08:25:22;;;;;;;4.60;2.00;;;20.40;99.90;;;;;;5098422;28;20067;-64
2022/08/05 08:27:48;;;;;;;4.68;2.20;;;20.40;99.90;;;;;;5081815;28;20107;-64
2022/08/05 08:30:14;;;;;;;6.30;2.47;;;20.50;99.90;;;;;;5055693;28;20052;-65
2022/08/05 08:32:40;;;;;;;6.60;2.10;;;20.60;99.90;;;;;;5057760;28;20045;-64
2022/08/05 08:35:06;;;;;;;3.80;1.90;;;20.50;99.90;;;;;;5055419;28;20060;-64
2022/08/05 08:37:32;;;;;;;5.28;1.50;;;20.60;99.90;;;;;;5065964;28;20105;-64
2022/08/05 08:39:58;;;;;;;4.78;1.40;;;20.70;99.90;;;;;;5064103;28;20048;-64
2022/08/05 08:42:24;;;;;;;2.47;1.45;;;20.70;99.90;;;;;;5082479;28;20049;-64
2022/08/05 08:44:55;;;;;;;2.92;1.20;;;20.70;99.90;;;;;;5082050;28;20038;-64
2022/08/05 08:47:23;;;;;;;3.88;1.55;;;20.70;99.90;;;;;;5081066;28;20049;-64
2022/08/05 08:49:55;;;;;;;3.63;1.60;;;20.70;99.90;;;;;;5081129;28;20056;-64
2022/08/05 08:52:28;;;;;;;3.83;1.33;;;20.80;99.90;;;;;;5062234;28;20052;-65
2022/08/05 08:54:54;;;;;;;3.38;1.23;;;20.80;99.90;;;;;;5059752;28;20045;-64
2022/08/05 08:57:21;;;;;;;3.17;1.40;;;20.90;99.90;;;;;;5074451;28;20062;-64
2022/08/05 08:59:48;;;;;;;2.95;1.10;;;20.90;99.90;;;;;;5064736;28;20040;-64
2022/08/05 09:02:14;;;;;;;1.90;1.20;;;20.90;99.90;;;;;;5054471;28;20060;-65
2022/08/05 09:04:40;;;;;;;2.05;1.30;;;21.00;99.90;;;;;;5066598;28;20500;-65
2022/08/05 09:07:08;;;;;;;4.53;1.20;;;21.00;99.90;;;;;;5082260;28;20048;-64
2022/08/05 09:09:35;;;;;;;6.15;1.48;;;21.10;99.90;;;;;;5054815;28;20112;-65
2022/08/05 09:12:11;;;;;;;2.95;1.02;;;21.10;99.90;;;;;;5073715;28;20404;-64
2022/08/05 09:14:37;;;;;;;3.33;1.13;;;21.00;99.90;;;;;;5078742;28;20059;-65
2022/08/05 09:17:06;;;;;;;2.10;1.30;;;21.10;99.90;;;;;;5063291;28;20048;-64
2022/08/05 09:19:32;;;;;;;3.50;1.20;;;21.10;99.90;;;;;;5059355;28;20105;-64
2022/08/05 09:21:58;;;;;;;2.67;1.00;;;21.20;99.90;;;;;;5040417;28;20072;-64
2022/08/05 09:24:23;;;;;;;2.03;1.23;;;21.10;99.90;;;;;;5063881;28;20405;-64
2022/08/05 09:26:51;;;;;;;5.82;1.50;;;21.10;99.90;;;;;;5083796;28;20061;-65
2022/08/05 09:29:18;;;;;;;4.75;1.48;;;21.20;99.90;;;;;;5102551;28;20124;-65
2022/08/05 09:31:59;;;;;;;2.40;1.20;;;21.10;99.90;;;;;;5093105;28;20067;-64
2022/08/05 09:34:24;;;;;;;8.70;1.63;;;21.00;99.90;;;;;;5098053;28;20066;-64
2022/08/05 09:36:51;;;;;;;4.65;1.42;;;20.90;99.90;;;;;;5093771;28;20044;-64
2022/08/05 09:39:18;;;;;;;2.65;1.27;;;20.80;99.90;;;;;;5089012;28;20056;-65
2022/08/05 09:41:59;;;;;;;2.47;1.10;;;20.80;99.90;;;;;;5093739;28;20072;-65
2022/08/05 09:44:37;;;;;;;1.88;1.05;;;20.80;99.90;;;;;;5089095;28;20548;-64
2022/08/05 09:47:08;;;;;;;3.47;1.42;;;20.80;99.90;;;;;;5098109;28;20052;-64
2022/08/05 09:49:38;;;;;;;4.55;1.00;;;20.90;99.90;;;;;;5101578;28;20095;-64
2022/08/05 09:52:34;;;;;;;3.90;1.08;;;21.00;99.90;;;;;;5102782;28;20051;-65
2022/08/05 09:55:02;;;;;;;2.30;1.08;;;21.10;99.90;;;;;;5103293;28;20419;-64
2022/08/05 09:57:33;;;;;;;4.45;1.00;;;21.30;99.90;;;;;;5101132;28;20044;-64
2022/08/05 10:00:05;;;;;;;4.63;1.00;;;21.30;99.90;;;;;;5099963;28;20089;-64
2022/08/05 10:02:33;;;;;;;4.57;1.00;;;21.50;99.90;;;;;;5090751;28;20054;-64
2022/08/05 10:05:08;;;;;;;3.03;1.00;;;21.60;99.90;;;;;;5097470;28;20147;-65
2022/08/05 10:07:54;;;;;;;3.55;1.08;;;21.70;99.90;;;;;;5095922;28;20085;-64
2022/08/05 10:10:24;;;;;;;2.78;0.98;;;21.60;99.90;;;;;;5101468;28;20068;-65
2022/08/05 10:12:51;;;;;;;2.08;0.80;;;21.50;99.90;;;;;;5105056;28;20044;-64
2022/08/05 10:15:26;;;;;;;2.92;1.13;;;21.40;99.90;;;;;;5102651;28;20081;-65
2022/08/05 10:18:21;;;;;;;5.32;1.27;;;21.30;99.90;;;;;;5101933;28;20459;-64
2022/08/05 10:21:04;;;;;;;3.70;0.75;;;21.30;99.90;;;;;;5026935;28;20088;-65
2022/08/05 10:23:35;;;;;;;1.70;1.13;;;21.50;99.90;;;;;;5039026;28;20487;-64
2022/08/05 10:26:04;;;;;;;2.42;0.60;;;21.60;99.90;;;;;;5040447;28;20103;-64
2022/08/05 10:28:30;;;;;;;2.33;0.80;;;21.70;99.90;;;;;;5024301;28;20057;-65
2022/08/05 10:30:58;;;;;;;4.72;0.85;;;21.60;99.90;;;;;;5035960;28;20096;-64
2022/08/05 10:33:26;;;;;;;1.95;0.63;;;21.60;99.90;;;;;;5020049;28;20057;-64
2022/08/05 10:35:53;;;;;;;0.68;0.60;;;21.60;99.90;;;;;;5031050;28;20053;-64
2022/08/05 10:38:21;;;;;;;1.98;0.90;;;21.60;99.90;;;;;;5040831;28;20106;-64
2022/08/05 10:40:52;;;;;;;1.63;0.70;;;21.70;99.90;;;;;;5008694;28;20049;-64
2022/08/05 10:43:56;;;;;;;4.88;0.98;;;22.00;99.90;;;;;;5020909;28;20365;-64
2022/08/05 10:46:22;;;;;;;1.50;0.70;;;22.10;99.90;;;;;;5004136;28;20046;-65
2022/08/05 10:48:56;;;;;;;4.13;0.80;;;22.10;99.90;;;;;;5004133;28;20053;-64
2022/08/05 10:51:23;;;;;;;2.42;0.70;;;22.10;99.90;;;;;;5003970;28;20066;-64
2022/08/05 10:53:59;;;;;;;1.45;0.73;;;22.10;99.90;;;;;;5003945;28;20057;-64
2022/08/05 10:56:29;;;;;;;5.63;1.20;;;22.10;99.90;;;;;;5010033;28;20061;-64
2022/08/05 10:58:58;;;;;;;2.92;0.85;;;22.30;99.90;;;;;;5019359;28;20047;-64
2022/08/05 11:01:32;;;;;;;2.33;0.70;;;22.30;99.10;;;;;;5038451;28;20064;-64
2022/08/05 11:04:20;;;;;;;5.45;0.85;;;22.30;98.10;;;;;;5033839;28;20045;-64
2022/08/05 11:07:03;;;;;;;4.63;0.80;;;22.30;98.20;;;;;;5038589;28;20065;-64
2022/08/05 11:09:40;;;;;;;2.15;0.70;;;22.30;98.30;;;;;;5039815;28;20057;-64
2022/08/05 11:12:43;;;;;;;4.00;0.70;;;22.30;98.20;;;;;;5044207;28;20053;-64
2022/08/05 11:15:33;;;;;;;1.50;0.50;;;22.30;96.70;;;;;;5038458;28;20053;-64
2022/08/05 11:18:24;;;;;;;1.35;0.68;;;22.40;97.00;;;;;;5041448;28;20050;-64
2022/08/05 11:20:50;;;;;;;6.60;0.85;;;22.50;96.20;;;;;;5088348;28;20110;-64
2022/08/05 11:23:40;;;;;;;2.50;0.60;;;22.60;93.40;;;;;;5099514;28;20064;-64
2022/08/05 11:26:16;;;;;;;2.83;0.60;;;22.60;91.80;;;;;;5101469;28;20053;-64
2022/08/05 11:28:44;;;;;;;0.77;0.50;;;22.40;92.20;;;;;;5101351;28;20496;-64
2022/08/05 11:31:10;;;;;;;2.85;0.70;;;22.50;91.40;;;;;;5097089;28;20040;-65
2022/08/05 11:33:47;;;;;;;2.45;0.50;;;22.50;91.20;;;;;;5102696;28;20052;-64
2022/08/05 11:36:15;;;;;;;2.72;0.55;;;22.60;91.00;;;;;;5096753;28;20053;-64
2022/08/05 11:38:41;;;;;;;1.10;0.40;;;22.60;91.20;;;;;;5095691;28;20044;-64
2022/08/05 11:41:16;;;;;;;1.90;0.40;;;22.60;91.30;;;;;;5101017;28;20046;-64
2022/08/05 11:44:05;;;;;;;4.43;0.70;;;22.70;91.20;;;;;;5100748;28;20044;-64
2022/08/05 11:46:42;;;;;;;2.42;0.47;;;22.90;91.00;;;;;;5092806;28;20100;-64
2022/08/05 11:49:14;;;;;;;2.50;0.50;;;22.90;90.90;;;;;;5103416;28;20036;-64
2022/08/05 11:51:44;;;;;;;4.00;0.43;;;23.00;91.10;;;;;;5103741;28;20048;-65
2022/08/05 11:54:12;;;;;;;2.22;0.70;;;23.10;90.90;;;;;;5095164;28;20090;-64
2022/08/05 11:56:43;;;;;;;4.63;0.65;;;23.20;90.60;;;;;;5103531;28;20040;-64
2022/08/05 11:59:15;;;;;;;11.13;0.90;;;23.10;91.10;;;;;;5101546;28;20063;-65
2022/08/05 12:02:01;;;;;;;2.03;0.50;;;23.10;91.50;;;;;;5095845;28;20079;-64
2022/08/05 12:04:36;;;;;;;2.50;0.57;;;23.20;91.30;;;;;;5096691;28;20048;-64
2022/08/05 12:07:02;;;;;;;1.65;0.47;;;23.10;92.00;;;;;;5104501;28;20048;-64
2022/08/05 12:09:29;;;;;;;1.02;0.35;;;23.00;92.70;;;;;;5099111;28;20110;-65
2022/08/05 12:11:55;;;;;;;2.20;0.70;;;23.00;93.60;;;;;;5102554;28;20051;-64
2022/08/05 12:14:21;;;;;;;0.98;0.40;;;23.20;92.40;;;;;;5097145;28;20043;-64
2022/08/05 12:16:47;;;;;;;1.13;0.60;;;22.90;92.30;;;;;;5104228;28;20044;-64
2022/08/05 12:19:13;;;;;;;2.40;0.50;;;23.00;93.30;;;;;;5101663;28;20048;-64
2022/08/05 12:21:48;;;;;;;1.30;0.68;;;22.70;92.90;;;;;;5088558;28;20059;-65
2022/08/05 12:24:18;;;;;;;5.25;0.80;;;22.70;92.90;;;;;;5101627;28;20114;-64
2022/08/05 12:26:45;;;;;;;;;;;22.50;93.10;;;;;;5099766;28;20095;-64
2022/08/05 12:29:15;;;;;;;1.13;0.50;;;22.40;93.70;;;;;;5091547;28;19998;-64
2022/08/05 12:31:45;;;;;;;2.60;0.60;;;22.50;93.80;;;;;;5099420;28;20083;-64
2022/08/05 12:34:12;;;;;;;5.38;0.70;;;22.60;93.30;;;;;;5092698;28;20048;-64
2022/08/05 12:36:39;;;;;;;3.47;0.68;;;22.80;93.30;;;;;;5086944;28;20079;-64
2022/08/05 12:39:05;;;;;;;3.88;0.60;;;22.90;93.20;;;;;;5100829;28;20035;-64
2022/08/05 12:41:34;;;;;;;4.07;0.50;;;23.00;92.80;;;;;;5102360;28;20040;-64
2022/08/05 12:44:06;;;;;;;3.50;0.67;;;23.00;93.10;;;;;;5101840;28;20123;-64
2022/08/05 12:46:34;;;;;;;1.88;0.77;;;23.00;93.00;;;;;;5104869;28;20048;-64
2022/08/05 12:49:04;;;;;;;3.55;0.70;;;22.80;93.40;;;;;;5095288;28;20055;-64
2022/08/05 12:51:31;;;;;;;3.13;0.70;;;22.80;93.90;;;;;;5102275;28;20044;-65
2022/08/05 12:54:01;;;;;;;2.15;0.60;;;22.80;93.60;;;;;;5103583;28;20047;-64
2022/08/05 12:56:28;;;;;;;3.35;0.60;;;23.00;92.50;;;;;;5101069;28;20040;-64
2022/08/05 12:59:15;;;;;;;2.72;0.50;;;22.90;92.90;;;;;;5099029;28;20048;-64